createdAt,value
2018-12-18T00:02:15.440Z,4.90
2018-12-18T00:04:43.383Z,4.80
2018-12-18T00:07:11.466Z,4.80
2018-12-18T00:09:39.417Z,4.70
2018-12-18T00:12:07.367Z,4.70
2018-12-18T00:14:35.324Z,4.60
2018-12-18T00:17:03.259Z,4.60
2018-12-18T00:19:31.229Z,4.60
2018-12-18T00:21:59.294Z,4.70
2018-12-18T00:24:27.253Z,4.70
2018-12-18T00:26:55.240Z,4.70
2018-12-18T00:29:23.191Z,4.60
2018-12-18T00:31:51.117Z,4.60
2018-12-18T00:34:19.063Z,4.60
2018-12-18T00:36:47.003Z,4.50
2018-12-18T00:39:15.283Z,4.50
2018-12-18T00:41:43.543Z,4.50
2018-12-18T00:44:11.752Z,4.60
2018-12-18T00:46:39.695Z,4.60
2018-12-18T00:49:07.676Z,4.60
2018-12-18T00:51:35.697Z,4.60
2018-12-18T00:54:03.621Z,4.60
2018-12-18T00:56:31.584Z,4.50
2018-12-18T00:58:59.537Z,4.50
2018-12-18T01:01:27.476Z,4.50
2018-12-18T01:03:55.419Z,4.50
2018-12-18T01:06:23.480Z,4.40
2018-12-18T01:08:58.052Z,4.40
2018-12-18T01:11:25.988Z,4.40
2018-12-18T01:13:53.936Z,4.40
2018-12-18T01:16:21.856Z,4.40
2018-12-18T01:18:49.806Z,4.40
2018-12-18T01:21:17.776Z,4.40
2018-12-18T01:23:45.817Z,4.40
2018-12-18T01:26:14.173Z,4.30
2018-12-18T01:28:42.196Z,4.30
2018-12-18T01:31:10.165Z,4.30
2018-12-18T01:33:38.118Z,4.30
2018-12-18T01:36:06.048Z,4.30
2018-12-18T01:38:34.048Z,4.30
2018-12-18T01:41:02.069Z,4.30
2018-12-18T01:43:30.039Z,4.20
2018-12-18T01:45:57.968Z,4.20
2018-12-18T01:48:25.936Z,4.30
2018-12-18T01:50:53.882Z,4.40
2018-12-18T01:53:21.823Z,4.30
2018-12-18T01:55:49.768Z,4.40
2018-12-18T01:58:17.732Z,4.50
2018-12-18T02:00:45.797Z,4.60
2018-12-18T02:03:13.784Z,4.70
2018-12-18T02:05:41.736Z,4.70
2018-12-18T02:08:09.680Z,4.70
2018-12-18T02:10:38.636Z,4.80
2018-12-18T02:13:06.589Z,4.80
2018-12-18T02:15:34.591Z,4.80
2018-12-18T02:18:02.575Z,4.80
2018-12-18T02:20:30.524Z,4.80
2018-12-18T02:22:58.453Z,4.70
2018-12-18T02:25:26.372Z,4.70
2018-12-18T02:27:54.408Z,4.60
2018-12-18T02:30:22.366Z,4.60
2018-12-18T02:32:50.293Z,4.60
2018-12-18T02:35:18.261Z,4.60
2018-12-18T02:37:46.276Z,4.70
2018-12-18T02:40:14.253Z,4.60
2018-12-18T02:42:42.214Z,4.60
2018-12-18T02:45:10.188Z,4.70
2018-12-18T02:47:38.123Z,4.70
2018-12-18T02:50:06.400Z,4.70
2018-12-18T02:52:34.336Z,4.70
2018-12-18T02:55:02.283Z,4.70
2018-12-18T02:57:30.215Z,4.80
2018-12-18T02:59:58.159Z,4.80
2018-12-18T03:02:26.078Z,4.80
2018-12-18T03:04:54.020Z,4.80
2018-12-18T03:07:21.950Z,4.80
2018-12-18T03:09:50.174Z,4.80
2018-12-18T03:12:18.271Z,4.80
2018-12-18T03:14:46.208Z,4.80
2018-12-18T03:17:14.139Z,4.80
2018-12-18T03:19:42.166Z,4.70
2018-12-18T03:22:10.217Z,4.70
2018-12-18T03:24:38.153Z,4.60
2018-12-18T03:27:06.081Z,4.60
2018-12-18T03:29:34.097Z,4.50
2018-12-18T03:32:06.696Z,4.50
2018-12-18T03:34:34.676Z,4.50
2018-12-18T03:37:02.629Z,4.50
2018-12-18T03:39:30.579Z,4.50
2018-12-18T03:41:58.541Z,4.50
2018-12-18T03:44:26.497Z,4.50
2018-12-18T03:46:54.489Z,4.50
2018-12-18T03:49:22.604Z,4.50
2018-12-18T03:51:51.152Z,4.50
2018-12-18T03:54:19.088Z,4.50
2018-12-18T03:56:47.051Z,4.40
2018-12-18T03:59:15.020Z,4.40
2018-12-18T04:01:42.949Z,4.40
2018-12-18T04:04:10.892Z,4.40
2018-12-18T04:06:38.810Z,4.30
2018-12-18T04:09:07.328Z,4.40
2018-12-18T04:11:39.752Z,4.30
2018-12-18T04:14:07.704Z,4.30
2018-12-18T04:16:35.655Z,4.30
2018-12-18T04:19:03.620Z,4.20
2018-12-18T04:21:31.561Z,4.20
2018-12-18T04:23:59.530Z,4.20
2018-12-18T04:26:27.471Z,4.20
2018-12-18T04:28:55.459Z,4.20
2018-12-18T04:31:23.584Z,4.10
2018-12-18T04:33:51.576Z,4.20
2018-12-18T04:36:19.520Z,4.20
2018-12-18T04:38:47.475Z,4.20
2018-12-18T04:41:15.409Z,4.20
2018-12-18T04:43:43.359Z,4.20
2018-12-18T04:46:11.308Z,4.20
2018-12-18T04:48:39.256Z,4.20
2018-12-18T04:51:07.228Z,4.20
2018-12-18T04:53:35.177Z,4.30
2018-12-18T04:56:03.122Z,4.20
2018-12-18T04:58:31.059Z,4.20
2018-12-18T05:00:59.008Z,4.20
2018-12-18T05:03:27.065Z,4.20
2018-12-18T05:05:55.200Z,4.30
2018-12-18T05:08:23.180Z,4.40
2018-12-18T05:10:51.133Z,4.40
2018-12-18T05:13:19.084Z,4.40
2018-12-18T05:15:47.024Z,4.40
2018-12-18T05:18:14.961Z,4.40
2018-12-18T05:20:42.916Z,4.40
2018-12-18T05:23:10.921Z,4.40
2018-12-18T05:25:38.861Z,4.50
2018-12-18T05:28:06.801Z,4.40
2018-12-18T05:30:34.747Z,4.40
2018-12-18T05:33:02.720Z,4.40
2018-12-18T05:35:30.656Z,4.50
2018-12-18T05:40:41.413Z,4.40
2018-12-18T05:43:09.315Z,4.40
2018-12-18T05:45:37.279Z,4.40
2018-12-18T05:48:05.262Z,4.40
2018-12-18T05:50:33.196Z,4.30
2018-12-18T05:53:01.148Z,4.30
2018-12-18T05:55:29.153Z,4.30
2018-12-18T05:57:57.113Z,4.40
2018-12-18T06:00:25.048Z,4.50
2018-12-18T06:02:52.977Z,4.50
2018-12-18T06:05:20.913Z,4.60
2018-12-18T06:07:48.836Z,4.70
2018-12-18T06:10:16.750Z,4.70
2018-12-18T06:12:46.037Z,4.70
2018-12-18T06:15:14.064Z,4.70
2018-12-18T06:17:42.104Z,4.70
2018-12-18T06:20:10.025Z,4.60
2018-12-18T06:22:37.964Z,4.60
2018-12-18T06:25:05.892Z,4.60
2018-12-18T06:27:33.874Z,4.60
2018-12-18T06:30:01.988Z,4.50
2018-12-18T06:32:30.024Z,4.60
2018-12-18T06:34:57.951Z,4.60
2018-12-18T06:37:25.915Z,4.60
2018-12-18T06:39:53.903Z,4.60
2018-12-18T06:42:21.876Z,4.60
2018-12-18T06:44:49.797Z,4.70
2018-12-18T06:47:17.806Z,4.70
2018-12-18T06:49:45.809Z,4.70
2018-12-18T06:52:13.993Z,4.80
2018-12-18T06:54:42.232Z,4.80
2018-12-18T06:57:10.697Z,4.90
2018-12-18T06:59:39.075Z,4.90
2018-12-18T07:02:07.545Z,4.90
2018-12-18T07:04:35.713Z,4.90
2018-12-18T07:07:04.160Z,5.00
2018-12-18T07:09:32.656Z,5.00
2018-12-18T07:12:01.016Z,5.00
2018-12-18T07:14:29.398Z,5.00
2018-12-18T07:16:58.569Z,5.00
2018-12-18T07:19:27.671Z,5.00
2018-12-18T07:21:58.534Z,5.10
2018-12-18T07:24:27.629Z,5.20
2018-12-18T07:26:57.281Z,5.20
2018-12-18T07:29:28.357Z,5.20
2018-12-18T07:32:00.983Z,5.30
2018-12-18T07:34:33.339Z,5.30
2018-12-18T07:37:00.997Z,5.40
2018-12-18T07:39:30.772Z,5.40
2018-12-18T07:41:59.860Z,5.50
2018-12-18T07:44:28.496Z,5.60
2018-12-18T07:46:58.669Z,5.60
2018-12-18T07:49:29.739Z,5.70
2018-12-18T07:51:58.927Z,5.70
2018-12-18T07:54:29.838Z,5.80
2018-12-18T07:57:00.116Z,5.90
2018-12-18T07:59:29.193Z,6.00
2018-12-18T08:01:59.499Z,6.10
2018-12-18T08:04:28.242Z,6.10
2018-12-18T08:06:57.304Z,6.20
2018-12-18T08:09:26.318Z,6.30
2018-12-18T08:11:55.728Z,6.40
2018-12-18T08:14:24.524Z,6.40
2018-12-18T08:16:54.205Z,6.50
2018-12-18T08:19:24.261Z,6.60
2018-12-18T08:21:53.276Z,6.70
2018-12-18T08:24:22.575Z,6.80
2018-12-18T08:26:51.744Z,6.90
2018-12-18T08:29:20.871Z,7.00
2018-12-18T08:31:50.103Z,7.00
2018-12-18T08:34:18.635Z,7.10
2018-12-18T08:36:47.581Z,7.10
2018-12-18T08:39:17.647Z,7.10
2018-12-18T08:41:46.677Z,7.20
2018-12-18T08:44:15.416Z,7.30
2018-12-18T08:46:46.880Z,7.30
2018-12-18T08:49:15.408Z,7.30
2018-12-18T08:54:10.090Z,7.40
2018-12-18T08:56:38.094Z,7.40
2018-12-18T08:59:06.110Z,7.50
2018-12-18T09:01:34.045Z,7.60
2018-12-18T09:04:02.011Z,7.60
2018-12-18T09:06:40.529Z,7.70
2018-12-18T09:09:10.583Z,7.70
2018-12-18T09:11:42.344Z,7.70
2018-12-18T09:14:11.804Z,7.80
2018-12-18T09:16:47.448Z,7.80
2018-12-18T09:19:15.499Z,7.90
2018-12-18T09:21:43.936Z,7.90
2018-12-18T09:24:12.580Z,7.90
2018-12-18T09:26:40.953Z,8.00
2018-12-18T09:29:10.588Z,8.10
2018-12-18T09:31:38.879Z,8.10
2018-12-18T09:34:08.208Z,8.20
2018-12-18T09:36:36.811Z,8.20
2018-12-18T09:39:12.779Z,8.20
2018-12-18T09:41:43.832Z,8.20
2018-12-18T09:44:17.695Z,8.30
2018-12-18T09:46:46.222Z,8.30
2018-12-18T09:49:15.129Z,8.40
2018-12-18T09:51:43.976Z,8.40
2018-12-18T09:54:12.388Z,8.40
2018-12-18T09:56:46.424Z,8.50
2018-12-18T09:59:14.750Z,8.50
2018-12-18T10:01:43.852Z,8.60
2018-12-18T10:04:12.026Z,8.60
2018-12-18T10:06:40.955Z,8.70
2018-12-18T10:09:10.048Z,8.80
2018-12-18T10:11:38.400Z,8.90
2018-12-18T10:14:08.785Z,8.90
2018-12-18T10:16:37.830Z,9.00
2018-12-18T10:19:07.300Z,9.10
2018-12-18T10:21:35.872Z,9.20
2018-12-18T10:24:04.396Z,9.30
2018-12-18T10:26:32.749Z,9.40
2018-12-18T10:29:01.524Z,9.50
2018-12-18T10:31:29.953Z,9.60
2018-12-18T10:33:58.281Z,9.60
2018-12-18T10:36:26.528Z,9.70
2018-12-18T10:38:54.791Z,9.70
2018-12-18T10:41:23.485Z,9.70
2018-12-18T10:43:51.932Z,9.70
2018-12-18T10:46:20.849Z,9.80
2018-12-18T10:48:49.066Z,9.80
2018-12-18T10:51:18.214Z,9.90
2018-12-18T10:53:47.230Z,9.90
2018-12-18T10:56:15.812Z,10.00
2018-12-18T10:58:45.694Z,10.10
2018-12-18T11:01:18.403Z,10.20
2018-12-18T11:03:47.273Z,10.20
2018-12-18T11:06:16.378Z,10.20
2018-12-18T11:08:45.738Z,10.30
2018-12-18T11:11:15.056Z,10.30
2018-12-18T11:13:43.684Z,10.40
2018-12-18T11:16:12.539Z,10.40
2018-12-18T11:18:41.463Z,10.50
2018-12-18T11:21:09.708Z,10.60
2018-12-18T11:23:38.289Z,10.70
2018-12-18T11:26:06.933Z,10.80
2018-12-18T11:28:35.049Z,10.90
2018-12-18T11:31:03.571Z,11.00
2018-12-18T11:33:31.810Z,11.00
2018-12-18T11:36:00.237Z,11.00
2018-12-18T11:38:28.425Z,11.00
2018-12-18T11:40:57.216Z,11.00
2018-12-18T11:43:25.428Z,11.10
2018-12-18T11:45:53.784Z,11.10
2018-12-18T11:48:21.961Z,11.20
2018-12-18T11:50:50.104Z,11.30
2018-12-18T11:53:18.412Z,11.40
2018-12-18T11:55:46.933Z,11.50
2018-12-18T11:58:15.436Z,11.60
2018-12-18T12:00:44.771Z,11.70
2018-12-18T12:03:13.142Z,11.80
2018-12-18T12:05:41.296Z,11.90
2018-12-18T12:08:09.588Z,12.00
2018-12-18T12:10:38.145Z,12.10
2018-12-18T12:13:06.530Z,12.20
2018-12-18T12:15:35.816Z,12.20
2018-12-18T12:18:03.885Z,12.30
2018-12-18T12:20:32.361Z,12.40
2018-12-18T12:23:00.536Z,12.50
2018-12-18T12:25:28.664Z,12.60
2018-12-18T12:28:02.486Z,12.60
2018-12-18T12:30:30.808Z,12.60
2018-12-18T12:32:59.051Z,12.60
2018-12-18T12:35:27.515Z,12.60
2018-12-18T12:37:56.020Z,12.60
2018-12-18T12:40:24.355Z,12.60
2018-12-18T12:42:52.879Z,12.60
2018-12-18T12:45:21.056Z,12.60
2018-12-18T12:47:51.780Z,12.70
2018-12-18T12:50:20.273Z,12.60
2018-12-18T12:52:49.217Z,12.70
2018-12-18T12:55:17.821Z,12.80
2018-12-18T12:57:46.059Z,12.80
2018-12-18T13:00:15.321Z,12.80
2018-12-18T13:02:43.961Z,12.90
2018-12-18T13:05:13.321Z,13.00
2018-12-18T13:07:41.631Z,13.00
2018-12-18T13:10:09.907Z,13.00
2018-12-18T13:12:39.415Z,13.00
2018-12-18T13:15:07.902Z,13.00
2018-12-18T13:17:36.651Z,12.90
2018-12-18T13:20:07.159Z,12.90
2018-12-18T13:22:35.492Z,12.90
2018-12-18T13:25:04.825Z,12.80
